createdAt,value
2023-12-05T00:02:15.138Z,97163.06
2023-12-05T00:04:44.029Z,97170.31
2023-12-05T00:07:20.715Z,97158.78
2023-12-05T00:09:48.188Z,97143.00
2023-12-05T00:12:18.172Z,97124.50
2023-12-05T00:14:45.447Z,97123.44
2023-12-05T00:17:17.580Z,97126.47
2023-12-05T00:19:44.818Z,97127.28
2023-12-05T00:22:17.457Z,97115.53
2023-12-05T00:24:45.073Z,97120.31
2023-12-05T00:27:17.314Z,97123.03
2023-12-05T00:29:48.947Z,97109.69
2023-12-05T00:32:18.674Z,97109.75
2023-12-05T00:34:47.109Z,97113.97
2023-12-05T00:37:17.310Z,97112.84
2023-12-05T00:39:45.107Z,97112.94
2023-12-05T00:42:14.757Z,97095.13
2023-12-05T00:44:43.014Z,97092.44
2023-12-05T00:47:10.409Z,97101.06
2023-12-05T00:49:38.398Z,97083.00
2023-12-05T00:52:08.691Z,97069.34
2023-12-05T00:54:35.957Z,97074.25
2023-12-05T00:57:03.396Z,97074.00
2023-12-05T00:59:33.558Z,97063.50
2023-12-05T01:02:03.998Z,97070.97
2023-12-05T01:04:31.752Z,97073.09
2023-12-05T01:07:00.301Z,97101.28
2023-12-05T01:09:27.497Z,97101.69
2023-12-05T01:11:54.652Z,97085.47
2023-12-05T01:14:21.995Z,97082.41
2023-12-05T01:16:49.116Z,97080.09
2023-12-05T01:19:16.356Z,97073.56
2023-12-05T01:21:43.826Z,97092.31
2023-12-05T01:24:10.984Z,97112.44
2023-12-05T01:26:38.145Z,97115.13
2023-12-05T01:29:06.369Z,97114.41
2023-12-05T01:31:33.906Z,97116.63
2023-12-05T01:34:01.362Z,97109.59
2023-12-05T01:36:32.265Z,97113.81
2023-12-05T01:38:59.384Z,97124.94
2023-12-05T01:41:27.213Z,97132.88
2023-12-05T01:43:54.341Z,97129.22
2023-12-05T01:46:21.829Z,97146.28
2023-12-05T01:48:49.487Z,97143.00
2023-12-05T01:51:17.752Z,97141.75
2023-12-05T01:53:45.302Z,97133.56
2023-12-05T01:56:13.959Z,97121.19
2023-12-05T01:58:41.413Z,97101.31
2023-12-05T02:01:11.285Z,97099.53
2023-12-05T02:03:40.272Z,97089.22
2023-12-05T02:06:08.506Z,97079.78
2023-12-05T02:08:37.361Z,97087.34
2023-12-05T02:11:04.765Z,97078.00
2023-12-05T02:13:32.096Z,97084.31
2023-12-05T02:16:22.917Z,97078.94
2023-12-05T02:19:04.486Z,97084.28
2023-12-05T02:21:39.335Z,97106.38
2023-12-05T02:24:23.753Z,97128.25
2023-12-05T02:27:22.477Z,97142.16
2023-12-05T02:29:53.384Z,97162.72
2023-12-05T02:32:20.582Z,97172.78
2023-12-05T02:34:48.288Z,97159.50
2023-12-05T02:38:06.533Z,97168.00
2023-12-05T02:40:38.936Z,97177.97
2023-12-05T02:43:13.096Z,97187.31
2023-12-05T02:45:41.766Z,97194.44
2023-12-05T02:48:11.828Z,97206.81
2023-12-05T02:50:39.378Z,97220.75
2023-12-05T02:53:06.935Z,97221.56
2023-12-05T02:55:37.183Z,97206.22
2023-12-05T02:58:06.718Z,97213.97
2023-12-05T03:00:34.046Z,97224.69
2023-12-05T03:03:01.160Z,97226.16
2023-12-05T03:05:28.811Z,97224.56
2023-12-05T03:07:56.196Z,97218.72
2023-12-05T03:10:23.641Z,97228.41
2023-12-05T03:12:50.878Z,97224.78
2023-12-05T03:15:18.115Z,97224.31
2023-12-05T03:17:45.527Z,97224.91
2023-12-05T03:20:12.952Z,97230.19
2023-12-05T03:22:40.469Z,97228.19
2023-12-05T03:25:07.939Z,97223.06
2023-12-05T03:27:36.255Z,97220.69
2023-12-05T03:30:04.427Z,97222.53
2023-12-05T03:32:34.455Z,97220.66
2023-12-05T03:35:01.981Z,97208.44
2023-12-05T03:37:29.321Z,97210.50
2023-12-05T03:39:56.551Z,97217.75
2023-12-05T03:42:24.782Z,97219.47
2023-12-05T03:44:51.905Z,97217.63
2023-12-05T03:47:19.132Z,97213.19
2023-12-05T03:49:46.556Z,97214.50
2023-12-05T03:52:17.246Z,97208.13
2023-12-05T03:54:44.723Z,97207.19
2023-12-05T03:57:14.655Z,97213.03
2023-12-05T03:59:43.378Z,97210.22
2023-12-05T04:02:12.877Z,97211.41
2023-12-05T04:04:43.161Z,97208.19
2023-12-05T04:07:10.443Z,97204.34
2023-12-05T04:09:37.815Z,97202.41
2023-12-05T04:12:05.315Z,97210.72
2023-12-05T04:14:32.792Z,97204.81
2023-12-05T04:17:00.144Z,97198.47
2023-12-05T04:19:28.436Z,97192.41
2023-12-05T04:21:55.724Z,97185.84
2023-12-05T04:24:23.178Z,97188.91
2023-12-05T04:26:50.318Z,97184.19
2023-12-05T04:29:17.511Z,97187.84
2023-12-05T04:31:44.860Z,97190.63
2023-12-05T04:34:12.340Z,97186.06
2023-12-05T04:36:40.141Z,97193.53
2023-12-05T04:39:08.636Z,97186.81
2023-12-05T04:41:36.967Z,97200.22
2023-12-05T04:44:05.282Z,97189.66
2023-12-05T04:46:32.822Z,97185.34
2023-12-05T04:49:00.022Z,97182.84
2023-12-05T04:51:28.014Z,97184.81
2023-12-05T04:53:55.489Z,97180.06
2023-12-05T04:56:23.335Z,97167.34
2023-12-05T04:58:50.442Z,97153.88
2023-12-05T05:01:20.922Z,97144.59
2023-12-05T05:03:48.439Z,97142.81
2023-12-05T05:06:16.051Z,97135.63
2023-12-05T05:08:43.856Z,97134.97
2023-12-05T05:11:11.135Z,97131.84
2023-12-05T05:13:45.896Z,97128.34
2023-12-05T05:16:17.360Z,97129.50
2023-12-05T05:18:44.605Z,97126.25
2023-12-05T05:21:14.287Z,97124.78
2023-12-05T05:23:41.469Z,97122.97
2023-12-05T05:26:09.424Z,97119.22
2023-12-05T05:28:39.344Z,97117.75
2023-12-05T05:31:07.052Z,97120.09
2023-12-05T05:33:34.610Z,97125.59
2023-12-05T05:36:01.979Z,97133.13
2023-12-05T05:38:32.264Z,97127.22
2023-12-05T05:41:07.939Z,97124.28
2023-12-05T05:43:35.940Z,97120.41
2023-12-05T05:46:03.460Z,97109.41
2023-12-05T05:48:33.603Z,97110.41
2023-12-05T05:51:01.772Z,97107.06
2023-12-05T05:53:31.381Z,97107.53
2023-12-05T05:56:01.883Z,97127.28
2023-12-05T05:58:31.783Z,97113.28
2023-12-05T06:00:59.144Z,97123.56
2023-12-05T06:03:29.441Z,97139.78
2023-12-05T06:06:00.111Z,97117.19
2023-12-05T06:08:27.377Z,97133.69
2023-12-05T06:10:54.647Z,97138.34
2023-12-05T06:13:22.020Z,97140.06
2023-12-05T06:15:49.194Z,97143.47
2023-12-05T06:18:18.946Z,97143.63
2023-12-05T06:20:47.476Z,97158.00
2023-12-05T06:23:15.348Z,97159.97
2023-12-05T06:25:42.656Z,97170.16
2023-12-05T06:28:12.111Z,97177.63
2023-12-05T06:30:39.472Z,97179.56
2023-12-05T06:33:06.742Z,97179.84
2023-12-05T06:35:36.721Z,97185.41
2023-12-05T06:38:03.844Z,97197.78
2023-12-05T06:40:31.286Z,97201.09
2023-12-05T06:42:58.835Z,97193.81
2023-12-05T06:45:26.129Z,97207.03
2023-12-05T06:47:53.325Z,97207.59
2023-12-05T06:50:20.497Z,97203.28
2023-12-05T06:52:47.606Z,97204.91
2023-12-05T06:55:15.223Z,97214.06
2023-12-05T06:57:42.434Z,97221.00
2023-12-05T07:00:10.193Z,97203.91
2023-12-05T07:02:37.547Z,97220.69
2023-12-05T07:05:06.004Z,97213.13
2023-12-05T07:07:33.819Z,97209.63
2023-12-05T07:10:01.248Z,97206.41
2023-12-05T07:12:31.524Z,97198.25
2023-12-05T07:14:59.061Z,97185.97
2023-12-05T07:17:26.331Z,97178.84
2023-12-05T07:19:53.589Z,97179.91
2023-12-05T07:22:20.829Z,97184.50
2023-12-05T07:24:48.049Z,97181.94
2023-12-05T07:27:17.568Z,97191.16
2023-12-05T07:29:44.902Z,97198.00
2023-12-05T07:32:17.267Z,97186.50
2023-12-05T07:34:44.510Z,97181.44
2023-12-05T07:37:17.623Z,97187.97
2023-12-05T07:39:44.933Z,97188.53
2023-12-05T07:42:17.366Z,97192.38
2023-12-05T07:44:44.490Z,97205.22
2023-12-05T07:47:17.572Z,97194.69
2023-12-05T07:49:48.616Z,97203.53
2023-12-05T07:52:17.573Z,97197.97
2023-12-05T07:54:44.742Z,97196.97
2023-12-05T07:57:23.228Z,97201.25
2023-12-05T07:59:53.375Z,97223.34
2023-12-05T08:02:22.434Z,97232.06
2023-12-05T08:04:49.772Z,97228.91
2023-12-05T08:07:18.349Z,97224.31
2023-12-05T08:09:45.787Z,97231.75
2023-12-05T08:12:17.672Z,97235.63
2023-12-05T08:14:44.876Z,97228.66
2023-12-05T08:17:17.281Z,97221.94
2023-12-05T08:19:44.432Z,97235.63
2023-12-05T08:22:14.987Z,97236.50
2023-12-05T08:24:43.202Z,97224.19
2023-12-05T08:27:10.489Z,97216.41
2023-12-05T08:29:43.801Z,97220.63
2023-12-05T08:32:14.694Z,97216.59
2023-12-05T08:34:44.805Z,97226.53
2023-12-05T08:37:14.856Z,97231.56
2023-12-05T08:39:43.121Z,97241.84
2023-12-05T08:42:10.535Z,97230.47
2023-12-05T08:44:43.776Z,97232.78
2023-12-05T08:47:13.009Z,97232.47
2023-12-05T08:49:43.923Z,97232.97
2023-12-05T08:52:11.293Z,97237.38
2023-12-05T08:54:43.486Z,97231.91
2023-12-05T08:57:14.735Z,97231.84
2023-12-05T08:59:45.584Z,97229.22
2023-12-05T09:02:17.723Z,97222.44
2023-12-05T09:04:45.377Z,97221.78
2023-12-05T09:07:17.684Z,97214.88
2023-12-05T09:09:45.003Z,97219.41
2023-12-05T09:12:17.345Z,97224.69
2023-12-05T09:14:44.857Z,97231.63
2023-12-05T09:17:19.731Z,97234.53
2023-12-05T09:19:47.086Z,97230.00
2023-12-05T09:22:18.688Z,97221.13
2023-12-05T09:24:45.890Z,97215.72
2023-12-05T09:27:17.350Z,97218.69
2023-12-05T09:29:50.212Z,97227.25
2023-12-05T09:32:19.654Z,97256.31
2023-12-05T09:34:47.138Z,97243.50
2023-12-05T09:37:17.412Z,97252.34
2023-12-05T09:39:44.828Z,97260.53
2023-12-05T09:42:17.758Z,97251.31
2023-12-05T09:44:48.805Z,97250.75
2023-12-05T09:47:21.662Z,97253.50
2023-12-05T09:49:49.968Z,97245.16
2023-12-05T09:52:17.706Z,97239.22
2023-12-05T09:54:45.481Z,97235.69
2023-12-05T09:57:17.613Z,97229.44
2023-12-05T09:59:44.872Z,97222.53
2023-12-05T10:02:17.762Z,97216.53
2023-12-05T10:04:46.697Z,97226.28
2023-12-05T10:07:17.190Z,97234.81
2023-12-05T10:09:44.990Z,97238.66
2023-12-05T10:12:18.157Z,97241.06
2023-12-05T10:14:47.007Z,97239.41
2023-12-05T10:17:17.242Z,97250.00
2023-12-05T10:19:45.054Z,97246.53
2023-12-05T10:22:17.600Z,97245.88
2023-12-05T10:24:46.870Z,97250.19
2023-12-05T10:27:16.935Z,97254.53
2023-12-05T10:29:44.212Z,97253.13
2023-12-05T10:32:17.572Z,97238.81
2023-12-05T10:34:52.843Z,97244.34
2023-12-05T10:37:24.739Z,97239.41
2023-12-05T10:39:54.666Z,97243.41
2023-12-05T10:42:29.191Z,97228.78
2023-12-05T10:44:57.097Z,97231.94
2023-12-05T10:47:28.934Z,97236.00
2023-12-05T10:49:56.898Z,97225.75
2023-12-05T10:52:25.769Z,97213.53
2023-12-05T10:54:59.498Z,97212.16
2023-12-05T10:57:35.753Z,97205.13
2023-12-05T11:00:05.117Z,97186.69
2023-12-05T11:02:32.576Z,97187.22
2023-12-05T11:05:05.836Z,97199.78
2023-12-05T11:07:33.390Z,97189.25
2023-12-05T11:10:01.176Z,97189.50
2023-12-05T11:12:29.660Z,97196.03
2023-12-05T11:14:58.982Z,97201.44
2023-12-05T11:18:21.661Z,97197.13
2023-12-05T11:21:01.894Z,97198.47
2023-12-05T11:23:47.247Z,97187.91
2023-12-05T11:26:45.658Z,97192.50
2023-12-05T11:29:49.046Z,97201.97
2023-12-05T11:32:32.124Z,97205.72
2023-12-05T11:35:05.681Z,97213.63
2023-12-05T11:37:54.961Z,97201.94
2023-12-05T11:40:22.718Z,97202.75
2023-12-05T11:43:09.980Z,97201.16
2023-12-05T11:45:39.403Z,97209.53
2023-12-05T11:48:09.968Z,97212.78
2023-12-05T11:50:46.321Z,97216.06
2023-12-05T11:53:15.849Z,97225.75
2023-12-05T11:55:45.027Z,97231.50
2023-12-05T11:58:32.709Z,97223.66
2023-12-05T12:01:10.608Z,97223.38
2023-12-05T12:03:56.352Z,97209.56
2023-12-05T12:06:26.285Z,97209.84
2023-12-05T12:08:55.509Z,97196.56
2023-12-05T12:11:23.595Z,97195.44
2023-12-05T12:13:51.753Z,97207.66
2023-12-05T12:16:20.929Z,97213.06
2023-12-05T12:18:53.719Z,97206.28
2023-12-05T12:21:32.721Z,97211.75
2023-12-05T12:24:01.131Z,97210.09
2023-12-05T12:26:33.649Z,97210.66
2023-12-05T12:29:11.020Z,97199.00
2023-12-05T12:31:39.099Z,97205.25
2023-12-05T12:34:09.888Z,97203.94
2023-12-05T12:36:38.898Z,97209.38
2023-12-05T12:39:06.193Z,97204.22
2023-12-05T12:41:33.356Z,97207.72
2023-12-05T12:44:00.759Z,97201.53
2023-12-05T12:46:27.857Z,97200.47
2023-12-05T12:48:58.127Z,97214.00
2023-12-05T12:51:25.325Z,97209.09
2023-12-05T12:53:52.693Z,97213.22
2023-12-05T12:56:19.875Z,97212.66
2023-12-05T12:58:48.950Z,97208.09
2023-12-05T13:01:16.294Z,97206.22
2023-12-05T13:03:45.440Z,97207.53
2023-12-05T13:06:13.821Z,97199.13
2023-12-05T13:08:41.235Z,97201.28
2023-12-05T13:11:09.212Z,97196.16
2023-12-05T13:13:36.707Z,97190.19
2023-12-05T13:16:06.563Z,97183.91
2023-12-05T13:18:45.603Z,97188.53
2023-12-05T13:21:14.083Z,97188.25
2023-12-05T13:23:45.013Z,97174.69
2023-12-05T13:26:13.228Z,97182.81
2023-12-05T13:28:41.015Z,97182.81
2023-12-05T13:31:09.398Z,97174.97
2023-12-05T13:33:36.985Z,97184.72
2023-12-05T13:36:04.911Z,97188.50
2023-12-05T13:38:32.093Z,97185.25
2023-12-05T13:41:02.871Z,97183.88
2023-12-05T13:43:33.191Z,97190.38
2023-12-05T13:46:02.806Z,97198.78
2023-12-05T13:48:30.394Z,97197.69
2023-12-05T13:51:04.100Z,97195.56
2023-12-05T13:53:31.297Z,97200.91
2023-12-05T13:56:03.914Z,97204.47
2023-12-05T13:58:31.206Z,97206.94
2023-12-05T14:01:03.265Z,97210.41
2023-12-05T14:03:31.001Z,97218.81
2023-12-05T14:06:03.828Z,97215.03
2023-12-05T14:08:31.049Z,97213.63
2023-12-05T14:11:02.754Z,97222.31
2023-12-05T14:13:32.083Z,97216.06
2023-12-05T14:16:04.350Z,97222.03
2023-12-05T14:18:32.967Z,97229.38
2023-12-05T14:21:02.848Z,97235.72
2023-12-05T14:23:30.136Z,97233.53
2023-12-05T14:25:59.881Z,97225.06
2023-12-05T14:28:29.285Z,97227.72
2023-12-05T14:31:02.560Z,97221.50
2023-12-05T14:33:30.008Z,97230.16
2023-12-05T14:36:00.313Z,97227.19
2023-12-05T14:38:31.114Z,97224.47
2023-12-05T14:41:02.991Z,97238.78
2023-12-05T14:43:30.234Z,97236.59
2023-12-05T14:46:02.688Z,97231.47
2023-12-05T14:48:30.283Z,97239.78
2023-12-05T14:51:00.474Z,97246.88
2023-12-05T14:53:31.453Z,97247.91
2023-12-05T14:56:02.790Z,97254.78
2023-12-05T14:58:30.016Z,97238.00
2023-12-05T15:01:03.555Z,97239.06
2023-12-05T15:03:31.934Z,97248.50
2023-12-05T15:06:02.396Z,97250.16
2023-12-05T15:08:32.018Z,97243.66
2023-12-05T15:11:02.555Z,97241.00
2023-12-05T15:13:29.937Z,97250.22
2023-12-05T15:16:03.223Z,97246.94
2023-12-05T15:18:31.102Z,97251.31
2023-12-05T15:21:02.742Z,97252.19
2023-12-05T15:23:30.154Z,97262.25
2023-12-05T15:26:02.538Z,97254.00
2023-12-05T15:28:30.293Z,97248.97
2023-12-05T15:31:02.954Z,97255.75
2023-12-05T15:33:30.479Z,97250.00
2023-12-05T15:36:02.444Z,97249.09
2023-12-05T15:38:30.567Z,97256.94
2023-12-05T15:41:02.924Z,97258.81
2023-12-05T15:43:30.113Z,97254.78
2023-12-05T15:46:00.036Z,97261.69
2023-12-05T15:48:43.634Z,97266.63
2023-12-05T15:51:13.975Z,97270.34
2023-12-05T15:53:42.797Z,97263.22
2023-12-05T15:56:12.538Z,97264.50
2023-12-05T15:58:40.508Z,97269.94
2023-12-05T16:01:08.050Z,97267.28
2023-12-05T16:03:35.873Z,97279.38
2023-12-05T16:06:03.097Z,97272.44
2023-12-05T16:08:30.288Z,97271.69
2023-12-05T16:11:02.270Z,97276.66
2023-12-05T16:13:29.728Z,97283.34
2023-12-05T16:16:03.728Z,97280.09
2023-12-05T16:18:31.246Z,97295.56
2023-12-05T16:21:02.768Z,97283.50
2023-12-05T16:23:31.190Z,97287.09
2023-12-05T16:26:02.339Z,97278.13
2023-12-05T16:28:29.431Z,97283.19
2023-12-05T16:30:58.347Z,97271.53
2023-12-05T16:33:32.305Z,97278.53
2023-12-05T16:36:03.267Z,97284.56
2023-12-05T16:38:30.948Z,97291.84
2023-12-05T16:41:04.051Z,97286.66
2023-12-05T16:43:31.244Z,97286.34
2023-12-05T16:46:02.838Z,97291.25
2023-12-05T16:48:30.074Z,97287.94
2023-12-05T16:51:00.356Z,97288.69
2023-12-05T16:53:28.373Z,97294.34
2023-12-05T16:55:56.028Z,97295.91
2023-12-05T16:58:25.982Z,97294.13
2023-12-05T17:00:53.334Z,97291.69
2023-12-05T17:03:23.217Z,97302.03
2023-12-05T17:05:50.830Z,97295.84
2023-12-05T17:08:18.336Z,97292.59
2023-12-05T17:10:45.989Z,97297.09
2023-12-05T17:13:13.416Z,97292.75
2023-12-05T17:15:42.659Z,97290.88
2023-12-05T17:18:10.581Z,97290.59
2023-12-05T17:20:38.432Z,97289.59
2023-12-05T17:23:05.743Z,97291.00
2023-12-05T17:25:33.177Z,97287.94
2023-12-05T17:28:04.060Z,97285.53
2023-12-05T17:30:34.677Z,97282.63
2023-12-05T17:33:02.663Z,97285.63
2023-12-05T17:35:30.320Z,97288.53
2023-12-05T17:37:57.653Z,97296.53
2023-12-05T17:40:24.789Z,97299.41
2023-12-05T17:42:51.936Z,97302.41
2023-12-05T17:45:20.349Z,97297.31
2023-12-05T17:47:47.904Z,97295.16
2023-12-05T17:50:15.357Z,97302.75
2023-12-05T17:52:45.542Z,97309.47
2023-12-05T17:55:14.011Z,97307.88
2023-12-05T17:57:41.597Z,97313.59
2023-12-05T18:00:09.757Z,97314.03
2023-12-05T18:02:44.417Z,97313.53
2023-12-05T18:05:11.676Z,97307.81
2023-12-05T18:07:54.181Z,97314.66
2023-12-05T18:10:25.742Z,97328.22
2023-12-05T18:12:53.266Z,97324.38
2023-12-05T18:15:20.801Z,97330.84
2023-12-05T18:17:50.680Z,97325.47
2023-12-05T18:20:18.095Z,97326.25
2023-12-05T18:22:48.290Z,97325.09
2023-12-05T18:25:16.007Z,97327.13
2023-12-05T18:27:44.148Z,97324.91
2023-12-05T18:30:11.731Z,97328.19
2023-12-05T18:32:39.683Z,97333.09
2023-12-05T18:35:07.287Z,97329.81
2023-12-05T18:37:34.797Z,97336.34
2023-12-05T18:40:03.785Z,97330.84
2023-12-05T18:42:35.097Z,97337.63
2023-12-05T18:45:02.338Z,97339.28
2023-12-05T18:47:29.524Z,97334.22
2023-12-05T18:49:58.282Z,97336.34
2023-12-05T18:52:25.989Z,97341.22
2023-12-05T18:54:53.547Z,97349.66
2023-12-05T18:57:21.530Z,97350.66
2023-12-05T18:59:48.861Z,97347.69
2023-12-05T19:02:16.279Z,97349.22
2023-12-05T19:04:44.079Z,97349.91
2023-12-05T19:07:14.095Z,97347.22
2023-12-05T19:09:42.412Z,97345.03
2023-12-05T19:12:09.622Z,97334.66
2023-12-05T19:14:37.386Z,97350.38
2023-12-05T19:17:06.905Z,97346.38
2023-12-05T19:19:34.365Z,97346.91
2023-12-05T19:22:03.877Z,97345.25
2023-12-05T19:24:32.029Z,97343.38
2023-12-05T19:27:00.833Z,97341.25
2023-12-05T19:29:27.923Z,97340.19
2023-12-05T19:31:55.369Z,97345.38
2023-12-05T19:34:32.272Z,97340.50
2023-12-05T19:37:07.506Z,97340.50
2023-12-05T19:40:09.055Z,97339.44
2023-12-05T19:42:39.137Z,97342.06
2023-12-05T19:45:14.094Z,97354.28
2023-12-05T19:47:59.280Z,97343.94
2023-12-05T19:50:26.920Z,97354.56
2023-12-05T19:52:54.294Z,97358.63
2023-12-05T19:55:22.844Z,97353.16
2023-12-05T19:57:50.141Z,97348.81
2023-12-05T20:00:17.569Z,97352.41
2023-12-05T20:02:44.658Z,97355.88
2023-12-05T20:05:11.894Z,97352.56
2023-12-05T20:07:39.483Z,97348.22
2023-12-05T20:10:07.510Z,97345.25
2023-12-05T20:12:34.966Z,97348.22
2023-12-05T20:15:02.054Z,97342.31
2023-12-05T20:17:29.729Z,97347.44
2023-12-05T20:19:57.364Z,97349.56
2023-12-05T20:22:29.643Z,97356.47
2023-12-05T20:24:58.370Z,97356.78
2023-12-05T20:27:25.939Z,97347.78
2023-12-05T20:29:56.979Z,97357.56
2023-12-05T20:32:24.923Z,97346.59
2023-12-05T20:34:52.359Z,97354.88
2023-12-05T20:37:19.670Z,97353.44
2023-12-05T20:39:46.950Z,97356.66
2023-12-05T20:42:14.077Z,97359.88
2023-12-05T20:44:41.304Z,97366.31
2023-12-05T20:47:08.812Z,97363.81
2023-12-05T20:49:36.345Z,97368.47
2023-12-05T20:52:04.621Z,97363.81
2023-12-05T20:54:34.607Z,97374.66
2023-12-05T20:57:04.892Z,97373.09
2023-12-05T20:59:31.992Z,97370.59
2023-12-05T21:02:00.951Z,97380.53
2023-12-05T21:04:28.111Z,97379.41
2023-12-05T21:06:55.504Z,97380.16
2023-12-05T21:09:22.815Z,97382.31
2023-12-05T21:11:50.742Z,97381.00
2023-12-05T21:14:20.419Z,97382.88
2023-12-05T21:16:48.303Z,97382.59
2023-12-05T21:19:15.511Z,97378.69
2023-12-05T21:21:45.618Z,97389.16
2023-12-05T21:24:13.551Z,97383.22
2023-12-05T21:26:44.861Z,97389.97
2023-12-05T21:29:12.208Z,97383.63
2023-12-05T21:31:42.159Z,97388.09
2023-12-05T21:34:12.006Z,97383.00
2023-12-05T21:36:39.363Z,97381.19
2023-12-05T21:39:06.540Z,97393.91
2023-12-05T21:41:36.447Z,97393.13
2023-12-05T21:44:04.283Z,97383.81
2023-12-05T21:46:32.698Z,97387.44
2023-12-05T21:49:00.958Z,97395.09
2023-12-05T21:51:29.751Z,97383.06
2023-12-05T21:53:59.524Z,97384.53
2023-12-05T21:56:28.388Z,97380.16
2023-12-05T21:58:57.112Z,97374.84
2023-12-05T22:01:24.820Z,97373.22
2023-12-05T22:03:52.170Z,97377.53
2023-12-05T22:06:19.321Z,97379.75
2023-12-05T22:08:46.615Z,97377.56
2023-12-05T22:11:13.865Z,97372.72
2023-12-05T22:13:44.600Z,97378.19
2023-12-05T22:16:13.042Z,97379.84
2023-12-05T22:18:40.815Z,97381.06
2023-12-05T22:21:08.262Z,97379.38
2023-12-05T22:23:41.484Z,97385.56
2023-12-05T22:26:09.868Z,97394.09
2023-12-05T22:28:37.338Z,97375.78
2023-12-05T22:31:07.908Z,97377.44
2023-12-05T22:33:35.493Z,97379.00
2023-12-05T22:36:03.500Z,97379.75
2023-12-05T22:38:30.627Z,97384.94
2023-12-05T22:41:02.854Z,97387.38
2023-12-05T22:43:32.037Z,97398.56
2023-12-05T22:46:10.227Z,97392.06
2023-12-05T22:48:39.097Z,97401.69
2023-12-05T22:51:10.973Z,97400.75
2023-12-05T22:56:11.304Z,97413.31
2023-12-05T22:58:38.515Z,97403.91
2023-12-05T23:01:05.979Z,97404.31
2023-12-05T23:03:34.476Z,97399.81
2023-12-05T23:06:02.654Z,97407.16
2023-12-05T23:08:30.122Z,97406.94
2023-12-05T23:11:03.502Z,97396.84
2023-12-05T23:13:31.011Z,97411.25
2023-12-05T23:16:02.945Z,97401.84
2023-12-05T23:18:30.209Z,97400.84
2023-12-05T23:21:02.691Z,97392.94
2023-12-05T23:23:30.352Z,97392.72
2023-12-05T23:26:02.814Z,97397.03
2023-12-05T23:28:30.489Z,97397.09
2023-12-05T23:31:04.882Z,97393.50
2023-12-05T23:33:32.718Z,97384.00
2023-12-05T23:36:03.595Z,97388.50
2023-12-05T23:38:30.674Z,97389.03
2023-12-05T23:41:03.708Z,97379.25
2023-12-05T23:43:32.936Z,97378.44
2023-12-05T23:46:03.090Z,97373.59
2023-12-05T23:48:30.808Z,97371.78
2023-12-05T23:51:02.956Z,97370.97
2023-12-05T23:53:30.125Z,97370.50
2023-12-05T23:56:02.636Z,97370.72
2023-12-05T23:58:32.485Z,97370.97
